sensor_id;sensor_type;location;lat;lon;timestamp;P1;durP1;ratioP1;P2;durP2;ratioP2
12861;SDS011;6499;66.348;14.134;2023-03-14T00:01:18;0.20;;;0.20;;
12861;SDS011;6499;66.348;14.134;2023-03-14T00:03:45;0.40;;;0.40;;
12861;SDS011;6499;66.348;14.134;2023-03-14T00:06:12;0.50;;;0.50;;
12861;SDS011;6499;66.348;14.134;2023-03-14T00:08:39;0.20;;;0.20;;
12861;SDS011;6499;66.348;14.134;2023-03-14T00:11:07;0.40;;;0.40;;
12861;SDS011;6499;66.348;14.134;2023-03-14T00:13:34;0.83;;;0.30;;
12861;SDS011;6499;66.348;14.134;2023-03-14T00:16:01;0.40;;;0.40;;
12861;SDS011;6499;66.348;14.134;2023-03-14T00:18:28;0.50;;;0.50;;
12861;SDS011;6499;66.348;14.134;2023-03-14T00:20:56;0.43;;;0.33;;
12861;SDS011;6499;66.348;14.134;2023-03-14T00:23:23;0.97;;;0.40;;
12861;SDS011;6499;66.348;14.134;2023-03-14T00:25:49;0.47;;;0.30;;
12861;SDS011;6499;66.348;14.134;2023-03-14T00:28:17;0.27;;;0.20;;
12861;SDS011;6499;66.348;14.134;2023-03-14T00:30:44;0.40;;;0.30;;
12861;SDS011;6499;66.348;14.134;2023-03-14T00:33:10;0.60;;;0.43;;
12861;SDS011;6499;66.348;14.134;2023-03-14T00:35:37;0.30;;;0.30;;
12861;SDS011;6499;66.348;14.134;2023-03-14T00:38:03;0.53;;;0.50;;
12861;SDS011;6499;66.348;14.134;2023-03-14T00:40:29;1.90;;;0.70;;
12861;SDS011;6499;66.348;14.134;2023-03-14T00:42:56;0.80;;;0.50;;
12861;SDS011;6499;66.348;14.134;2023-03-14T00:45:24;0.80;;;0.63;;
12861;SDS011;6499;66.348;14.134;2023-03-14T00:47:50;1.77;;;0.90;;
12861;SDS011;6499;66.348;14.134;2023-03-14T00:50:17;1.13;;;0.60;;
12861;SDS011;6499;66.348;14.134;2023-03-14T00:52:43;1.57;;;0.67;;
12861;SDS011;6499;66.348;14.134;2023-03-14T00:55:11;0.80;;;0.70;;
12861;SDS011;6499;66.348;14.134;2023-03-14T00:57:37;0.80;;;0.70;;
12861;SDS011;6499;66.348;14.134;2023-03-14T01:00:04;0.30;;;0.30;;
12861;SDS011;6499;66.348;14.134;2023-03-14T01:02:34;0.77;;;0.40;;
12861;SDS011;6499;66.348;14.134;2023-03-14T01:05:01;0.40;;;0.40;;
12861;SDS011;6499;66.348;14.134;2023-03-14T01:07:27;1.17;;;0.30;;
12861;SDS011;6499;66.348;14.134;2023-03-14T01:09:54;0.30;;;0.30;;
12861;SDS011;6499;66.348;14.134;2023-03-14T01:12:20;0.30;;;0.20;;
12861;SDS011;6499;66.348;14.134;2023-03-14T01:14:46;0.40;;;0.40;;
12861;SDS011;6499;66.348;14.134;2023-03-14T01:17:13;0.40;;;0.40;;
12861;SDS011;6499;66.348;14.134;2023-03-14T01:19:41;0.70;;;0.30;;
12861;SDS011;6499;66.348;14.134;2023-03-14T01:22:07;0.30;;;0.30;;
12861;SDS011;6499;66.348;14.134;2023-03-14T01:24:34;0.27;;;0.27;;
12861;SDS011;6499;66.348;14.134;2023-03-14T01:27:00;0.30;;;0.30;;
12861;SDS011;6499;66.348;14.134;2023-03-14T01:29:27;0.30;;;0.30;;
12861;SDS011;6499;66.348;14.134;2023-03-14T01:31:53;0.37;;;0.27;;
12861;SDS011;6499;66.348;14.134;2023-03-14T01:34:19;0.70;;;0.30;;
12861;SDS011;6499;66.348;14.134;2023-03-14T01:36:47;0.30;;;0.30;;
12861;SDS011;6499;66.348;14.134;2023-03-14T01:39:14;0.37;;;0.37;;
12861;SDS011;6499;66.348;14.134;2023-03-14T01:41:40;0.30;;;0.30;;
12861;SDS011;6499;66.348;14.134;2023-03-14T01:44:08;0.47;;;0.47;;
12861;SDS011;6499;66.348;14.134;2023-03-14T01:46:36;0.30;;;0.30;;
12861;SDS011;6499;66.348;14.134;2023-03-14T01:49:11;0.30;;;0.30;;
12861;SDS011;6499;66.348;14.134;2023-03-14T01:51:41;0.30;;;0.30;;
12861;SDS011;6499;66.348;14.134;2023-03-14T01:54:12;0.30;;;0.30;;
12861;SDS011;6499;66.348;14.134;2023-03-14T01:56:40;0.30;;;0.30;;
12861;SDS011;6499;66.348;14.134;2023-03-14T01:59:06;0.40;;;0.40;;
12861;SDS011;6499;66.348;14.134;2023-03-14T02:01:34;0.30;;;0.30;;
12861;SDS011;6499;66.348;14.134;2023-03-14T02:04:01;0.20;;;0.20;;
12861;SDS011;6499;66.348;14.134;2023-03-14T02:06:32;0.30;;;0.30;;
12861;SDS011;6499;66.348;14.134;2023-03-14T02:08:59;0.30;;;0.30;;
12861;SDS011;6499;66.348;14.134;2023-03-14T02:11:28;0.30;;;0.30;;
12861;SDS011;6499;66.348;14.134;2023-03-14T02:13:55;0.30;;;0.30;;
12861;SDS011;6499;66.348;14.134;2023-03-14T02:16:22;0.30;;;0.30;;
12861;SDS011;6499;66.348;14.134;2023-03-14T02:18:48;0.40;;;0.40;;
12861;SDS011;6499;66.348;14.134;2023-03-14T02:21:16;0.40;;;0.40;;
12861;SDS011;6499;66.348;14.134;2023-03-14T02:23:48;0.60;;;0.30;;
12861;SDS011;6499;66.348;14.134;2023-03-14T02:26:18;0.30;;;0.30;;
12861;SDS011;6499;66.348;14.134;2023-03-14T02:28:47;0.20;;;0.20;;
12861;SDS011;6499;66.348;14.134;2023-03-14T02:31:14;0.37;;;0.37;;
12861;SDS011;6499;66.348;14.134;2023-03-14T02:33:41;0.30;;;0.30;;
12861;SDS011;6499;66.348;14.134;2023-03-14T02:36:09;0.27;;;0.27;;
12861;SDS011;6499;66.348;14.134;2023-03-14T02:38:39;0.20;;;0.20;;
12861;SDS011;6499;66.348;14.134;2023-03-14T02:41:07;0.30;;;0.30;;
12861;SDS011;6499;66.348;14.134;2023-03-14T02:43:33;0.20;;;0.20;;
12861;SDS011;6499;66.348;14.134;2023-03-14T02:46:01;0.30;;;0.30;;
12861;SDS011;6499;66.348;14.134;2023-03-14T02:48:30;0.60;;;0.30;;
12861;SDS011;6499;66.348;14.134;2023-03-14T02:50:58;0.70;;;0.43;;
12861;SDS011;6499;66.348;14.134;2023-03-14T02:53:25;0.20;;;0.20;;
12861;SDS011;6499;66.348;14.134;2023-03-14T02:55:52;0.30;;;0.30;;
12861;SDS011;6499;66.348;14.134;2023-03-14T02:58:19;0.83;;;0.50;;
12861;SDS011;6499;66.348;14.134;2023-03-14T03:00:45;1.20;;;0.30;;
12861;SDS011;6499;66.348;14.134;2023-03-14T03:03:13;1.03;;;0.30;;
12861;SDS011;6499;66.348;14.134;2023-03-14T03:05:40;0.40;;;0.40;;
12861;SDS011;6499;66.348;14.134;2023-03-14T03:08:07;0.30;;;0.30;;
12861;SDS011;6499;66.348;14.134;2023-03-14T03:10:34;0.30;;;0.30;;
12861;SDS011;6499;66.348;14.134;2023-03-14T03:13:00;0.20;;;0.20;;
12861;SDS011;6499;66.348;14.134;2023-03-14T03:15:27;0.70;;;0.30;;
12861;SDS011;6499;66.348;14.134;2023-03-14T03:17:53;0.23;;;0.23;;
12861;SDS011;6499;66.348;14.134;2023-03-14T03:20:21;0.40;;;0.30;;
12861;SDS011;6499;66.348;14.134;2023-03-14T03:22:48;0.47;;;0.37;;
12861;SDS011;6499;66.348;14.134;2023-03-14T03:25:15;0.33;;;0.30;;
12861;SDS011;6499;66.348;14.134;2023-03-14T03:27:41;0.30;;;0.30;;
12861;SDS011;6499;66.348;14.134;2023-03-14T03:30:08;0.53;;;0.50;;
12861;SDS011;6499;66.348;14.134;2023-03-14T03:32:35;0.20;;;0.20;;
12861;SDS011;6499;66.348;14.134;2023-03-14T03:35:02;0.77;;;0.40;;
12861;SDS011;6499;66.348;14.134;2023-03-14T03:37:31;0.30;;;0.30;;
12861;SDS011;6499;66.348;14.134;2023-03-14T03:39:57;0.40;;;0.40;;
12861;SDS011;6499;66.348;14.134;2023-03-14T03:42:24;0.30;;;0.30;;
12861;SDS011;6499;66.348;14.134;2023-03-14T03:44:52;0.40;;;0.40;;
12861;SDS011;6499;66.348;14.134;2023-03-14T03:47:18;0.40;;;0.40;;
12861;SDS011;6499;66.348;14.134;2023-03-14T03:49:45;1.03;;;0.30;;
12861;SDS011;6499;66.348;14.134;2023-03-14T03:52:11;0.30;;;0.30;;
12861;SDS011;6499;66.348;14.134;2023-03-14T03:54:39;0.40;;;0.40;;
12861;SDS011;6499;66.348;14.134;2023-03-14T03:57:05;0.30;;;0.30;;
12861;SDS011;6499;66.348;14.134;2023-03-14T03:59:32;0.73;;;0.40;;
12861;SDS011;6499;66.348;14.134;2023-03-14T04:01:58;0.30;;;0.30;;
12861;SDS011;6499;66.348;14.134;2023-03-14T04:04:25;0.30;;;0.30;;
12861;SDS011;6499;66.348;14.134;2023-03-14T04:06:51;0.30;;;0.30;;
12861;SDS011;6499;66.348;14.134;2023-03-14T04:09:18;0.30;;;0.30;;
12861;SDS011;6499;66.348;14.134;2023-03-14T04:11:45;0.40;;;0.40;;
12861;SDS011;6499;66.348;14.134;2023-03-14T04:14:12;0.50;;;0.30;;
12861;SDS011;6499;66.348;14.134;2023-03-14T04:16:39;0.20;;;0.20;;
12861;SDS011;6499;66.348;14.134;2023-03-14T04:19:05;0.30;;;0.30;;
12861;SDS011;6499;66.348;14.134;2023-03-14T04:21:31;0.50;;;0.40;;
12861;SDS011;6499;66.348;14.134;2023-03-14T04:23:58;0.30;;;0.30;;
12861;SDS011;6499;66.348;14.134;2023-03-14T04:26:24;0.30;;;0.30;;
12861;SDS011;6499;66.348;14.134;2023-03-14T04:28:52;0.40;;;0.40;;
12861;SDS011;6499;66.348;14.134;2023-03-14T04:31:19;0.30;;;0.30;;
12861;SDS011;6499;66.348;14.134;2023-03-14T04:33:46;0.80;;;0.40;;
12861;SDS011;6499;66.348;14.134;2023-03-14T04:36:13;0.30;;;0.30;;
12861;SDS011;6499;66.348;14.134;2023-03-14T04:38:40;0.40;;;0.40;;
12861;SDS011;6499;66.348;14.134;2023-03-14T04:41:06;0.63;;;0.53;;
12861;SDS011;6499;66.348;14.134;2023-03-14T04:43:33;0.20;;;0.20;;
12861;SDS011;6499;66.348;14.134;2023-03-14T04:46:00;0.50;;;0.50;;
12861;SDS011;6499;66.348;14.134;2023-03-14T04:48:27;0.30;;;0.30;;
12861;SDS011;6499;66.348;14.134;2023-03-14T04:50:54;0.40;;;0.40;;
12861;SDS011;6499;66.348;14.134;2023-03-14T04:53:20;0.30;;;0.30;;
12861;SDS011;6499;66.348;14.134;2023-03-14T04:55:47;0.60;;;0.50;;
12861;SDS011;6499;66.348;14.134;2023-03-14T04:58:14;0.60;;;0.60;;
12861;SDS011;6499;66.348;14.134;2023-03-14T05:00:41;0.47;;;0.40;;
12861;SDS011;6499;66.348;14.134;2023-03-14T05:03:09;1.17;;;0.70;;
12861;SDS011;6499;66.348;14.134;2023-03-14T05:05:35;0.97;;;0.77;;
12861;SDS011;6499;66.348;14.134;2023-03-14T05:08:02;0.90;;;0.73;;
12861;SDS011;6499;66.348;14.134;2023-03-14T05:10:28;0.80;;;0.70;;
12861;SDS011;6499;66.348;14.134;2023-03-14T05:12:55;0.60;;;0.50;;
12861;SDS011;6499;66.348;14.134;2023-03-14T05:15:21;0.70;;;0.70;;
12861;SDS011;6499;66.348;14.134;2023-03-14T05:17:48;1.30;;;0.80;;
12861;SDS011;6499;66.348;14.134;2023-03-14T05:20:16;1.43;;;0.73;;
12861;SDS011;6499;66.348;14.134;2023-03-14T05:22:42;1.07;;;0.73;;
12861;SDS011;6499;66.348;14.134;2023-03-14T05:25:09;0.60;;;0.60;;
12861;SDS011;6499;66.348;14.134;2023-03-14T05:27:35;0.53;;;0.53;;
12861;SDS011;6499;66.348;14.134;2023-03-14T05:30:02;0.60;;;0.60;;
12861;SDS011;6499;66.348;14.134;2023-03-14T05:32:28;2.40;;;1.20;;
12861;SDS011;6499;66.348;14.134;2023-03-14T05:34:55;0.70;;;0.50;;
12861;SDS011;6499;66.348;14.134;2023-03-14T05:37:25;0.50;;;0.50;;
12861;SDS011;6499;66.348;14.134;2023-03-14T05:39:52;0.60;;;0.60;;
12861;SDS011;6499;66.348;14.134;2023-03-14T05:42:18;1.00;;;0.57;;
12861;SDS011;6499;66.348;14.134;2023-03-14T05:44:45;0.93;;;0.70;;
12861;SDS011;6499;66.348;14.134;2023-03-14T05:47:11;0.80;;;0.70;;
12861;SDS011;6499;66.348;14.134;2023-03-14T05:49:38;0.97;;;0.70;;
12861;SDS011;6499;66.348;14.134;2023-03-14T05:52:04;0.67;;;0.67;;
12861;SDS011;6499;66.348;14.134;2023-03-14T05:54:32;0.47;;;0.47;;
12861;SDS011;6499;66.348;14.134;2023-03-14T05:56:59;0.60;;;0.60;;
12861;SDS011;6499;66.348;14.134;2023-03-14T05:59:25;1.07;;;0.60;;
12861;SDS011;6499;66.348;14.134;2023-03-14T06:01:52;1.80;;;0.60;;
12861;SDS011;6499;66.348;14.134;2023-03-14T06:04:18;1.73;;;1.00;;
12861;SDS011;6499;66.348;14.134;2023-03-14T06:06:44;0.70;;;0.70;;
12861;SDS011;6499;66.348;14.134;2023-03-14T06:09:11;0.70;;;0.70;;
12861;SDS011;6499;66.348;14.134;2023-03-14T06:11:39;0.80;;;0.80;;
12861;SDS011;6499;66.348;14.134;2023-03-14T06:14:06;0.80;;;0.80;;
12861;SDS011;6499;66.348;14.134;2023-03-14T06:16:32;0.80;;;0.60;;
12861;SDS011;6499;66.348;14.134;2023-03-14T06:18:59;0.40;;;0.40;;
12861;SDS011;6499;66.348;14.134;2023-03-14T06:21:25;0.50;;;0.50;;
12861;SDS011;6499;66.348;14.134;2023-03-14T06:23:52;1.70;;;1.40;;
12861;SDS011;6499;66.348;14.134;2023-03-14T06:26:18;0.40;;;0.40;;
12861;SDS011;6499;66.348;14.134;2023-03-14T06:28:46;0.40;;;0.40;;
12861;SDS011;6499;66.348;14.134;2023-03-14T06:31:12;0.90;;;0.60;;
12861;SDS011;6499;66.348;14.134;2023-03-14T06:33:39;0.43;;;0.40;;
12861;SDS011;6499;66.348;14.134;2023-03-14T06:36:06;1.00;;;0.87;;
12861;SDS011;6499;66.348;14.134;2023-03-14T06:38:32;1.20;;;0.80;;
12861;SDS011;6499;66.348;14.134;2023-03-14T06:41:02;2.50;;;1.90;;
12861;SDS011;6499;66.348;14.134;2023-03-14T06:43:29;1.27;;;0.97;;
12861;SDS011;6499;66.348;14.134;2023-03-14T06:45:57;1.23;;;0.70;;
12861;SDS011;6499;66.348;14.134;2023-03-14T06:48:23;1.07;;;0.70;;
12861;SDS011;6499;66.348;14.134;2023-03-14T06:50:50;2.53;;;1.03;;
12861;SDS011;6499;66.348;14.134;2023-03-14T06:53:16;1.50;;;0.90;;
12861;SDS011;6499;66.348;14.134;2023-03-14T06:55:43;0.90;;;0.60;;
12861;SDS011;6499;66.348;14.134;2023-03-14T06:58:10;0.60;;;0.60;;
12861;SDS011;6499;66.348;14.134;2023-03-14T07:00:37;0.50;;;0.50;;
12861;SDS011;6499;66.348;14.134;2023-03-14T07:03:04;0.87;;;0.70;;
12861;SDS011;6499;66.348;14.134;2023-03-14T07:05:31;0.93;;;0.70;;
12861;SDS011;6499;66.348;14.134;2023-03-14T07:07:57;0.70;;;0.60;;
12861;SDS011;6499;66.348;14.134;2023-03-14T07:10:27;0.50;;;0.50;;
12861;SDS011;6499;66.348;14.134;2023-03-14T07:12:53;1.20;;;0.73;;
12861;SDS011;6499;66.348;14.134;2023-03-14T07:15:20;1.30;;;1.10;;
12861;SDS011;6499;66.348;14.134;2023-03-14T07:17:46;1.77;;;0.90;;
12861;SDS011;6499;66.348;14.134;2023-03-14T07:20:14;2.43;;;1.30;;
12861;SDS011;6499;66.348;14.134;2023-03-14T07:22:41;2.50;;;1.13;;
12861;SDS011;6499;66.348;14.134;2023-03-14T07:25:08;1.20;;;0.90;;
12861;SDS011;6499;66.348;14.134;2023-03-14T07:27:37;0.83;;;0.63;;
12861;SDS011;6499;66.348;14.134;2023-03-14T07:30:04;0.60;;;0.57;;
12861;SDS011;6499;66.348;14.134;2023-03-14T07:32:30;0.83;;;0.60;;
12861;SDS011;6499;66.348;14.134;2023-03-14T07:34:57;4.30;;;3.43;;
12861;SDS011;6499;66.348;14.134;2023-03-14T07:37:25;2.27;;;2.07;;
12861;SDS011;6499;66.348;14.134;2023-03-14T07:39:51;2.40;;;2.20;;
12861;SDS011;6499;66.348;14.134;2023-03-14T07:42:17;2.30;;;2.10;;
12861;SDS011;6499;66.348;14.134;2023-03-14T07:44:44;3.97;;;2.37;;
12861;SDS011;6499;66.348;14.134;2023-03-14T07:47:10;2.20;;;1.40;;
12861;SDS011;6499;66.348;14.134;2023-03-14T07:49:37;1.13;;;1.03;;
12861;SDS011;6499;66.348;14.134;2023-03-14T07:52:03;1.63;;;1.43;;
12861;SDS011;6499;66.348;14.134;2023-03-14T07:54:34;1.50;;;1.10;;
12861;SDS011;6499;66.348;14.134;2023-03-14T07:57:01;1.53;;;1.40;;
12861;SDS011;6499;66.348;14.134;2023-03-14T07:59:28;2.70;;;2.17;;
12861;SDS011;6499;66.348;14.134;2023-03-14T08:01:55;2.20;;;2.00;;
12861;SDS011;6499;66.348;14.134;2023-03-14T08:04:21;2.17;;;1.80;;
12861;SDS011;6499;66.348;14.134;2023-03-14T08:06:48;2.00;;;1.90;;
12861;SDS011;6499;66.348;14.134;2023-03-14T08:09:15;1.73;;;1.63;;
12861;SDS011;6499;66.348;14.134;2023-03-14T08:11:42;1.53;;;1.10;;
12861;SDS011;6499;66.348;14.134;2023-03-14T08:14:09;1.70;;;1.57;;
12861;SDS011;6499;66.348;14.134;2023-03-14T08:16:36;1.50;;;1.20;;
12861;SDS011;6499;66.348;14.134;2023-03-14T08:19:02;1.20;;;1.10;;
12861;SDS011;6499;66.348;14.134;2023-03-14T08:21:29;1.30;;;1.00;;
12861;SDS011;6499;66.348;14.134;2023-03-14T08:23:55;1.47;;;1.30;;
12861;SDS011;6499;66.348;14.134;2023-03-14T08:26:22;1.30;;;1.20;;
12861;SDS011;6499;66.348;14.134;2023-03-14T08:28:50;1.20;;;1.10;;
12861;SDS011;6499;66.348;14.134;2023-03-14T08:31:16;1.40;;;1.23;;
12861;SDS011;6499;66.348;14.134;2023-03-14T08:33:43;2.77;;;1.97;;
12861;SDS011;6499;66.348;14.134;2023-03-14T08:36:10;2.43;;;1.80;;
12861;SDS011;6499;66.348;14.134;2023-03-14T08:38:36;1.90;;;1.50;;
12861;SDS011;6499;66.348;14.134;2023-03-14T08:41:03;1.73;;;1.30;;
12861;SDS011;6499;66.348;14.134;2023-03-14T08:43:30;2.17;;;1.40;;
12861;SDS011;6499;66.348;14.134;2023-03-14T08:45:58;1.73;;;1.10;;
12861;SDS011;6499;66.348;14.134;2023-03-14T08:48:27;2.63;;;1.43;;
12861;SDS011;6499;66.348;14.134;2023-03-14T08:50:54;4.70;;;2.63;;
12861;SDS011;6499;66.348;14.134;2023-03-14T08:53:20;3.27;;;1.90;;
12861;SDS011;6499;66.348;14.134;2023-03-14T08:55:50;1.40;;;0.50;;
12861;SDS011;6499;66.348;14.134;2023-03-14T08:58:18;0.80;;;0.57;;
12861;SDS011;6499;66.348;14.134;2023-03-14T09:00:44;0.53;;;0.53;;
12861;SDS011;6499;66.348;14.134;2023-03-14T09:03:12;0.50;;;0.50;;
12861;SDS011;6499;66.348;14.134;2023-03-14T09:05:39;7.50;;;3.03;;
12861;SDS011;6499;66.348;14.134;2023-03-14T09:08:06;2.80;;;1.53;;
12861;SDS011;6499;66.348;14.134;2023-03-14T09:10:32;1.40;;;0.97;;
12861;SDS011;6499;66.348;14.134;2023-03-14T09:12:58;0.60;;;0.50;;
12861;SDS011;6499;66.348;14.134;2023-03-14T09:15:25;2.30;;;0.80;;
12861;SDS011;6499;66.348;14.134;2023-03-14T09:17:51;1.60;;;0.57;;
12861;SDS011;6499;66.348;14.134;2023-03-14T09:20:20;1.30;;;0.60;;
12861;SDS011;6499;66.348;14.134;2023-03-14T09:22:46;1.80;;;0.80;;
12861;SDS011;6499;66.348;14.134;2023-03-14T09:25:13;2.07;;;1.37;;
12861;SDS011;6499;66.348;14.134;2023-03-14T09:27:39;4.47;;;1.60;;
12861;SDS011;6499;66.348;14.134;2023-03-14T09:30:06;2.03;;;0.90;;
12861;SDS011;6499;66.348;14.134;2023-03-14T09:32:33;4.17;;;1.30;;
12861;SDS011;6499;66.348;14.134;2023-03-14T09:34:59;5.30;;;1.27;;
12861;SDS011;6499;66.348;14.134;2023-03-14T09:37:27;4.70;;;1.23;;
12861;SDS011;6499;66.348;14.134;2023-03-14T09:39:53;4.10;;;1.73;;
12861;SDS011;6499;66.348;14.134;2023-03-14T09:42:20;3.60;;;1.30;;
12861;SDS011;6499;66.348;14.134;2023-03-14T09:44:51;1.07;;;0.70;;
12861;SDS011;6499;66.348;14.134;2023-03-14T09:47:19;1.03;;;0.70;;
12861;SDS011;6499;66.348;14.134;2023-03-14T09:49:46;1.90;;;0.90;;
12861;SDS011;6499;66.348;14.134;2023-03-14T09:52:14;1.70;;;1.20;;
12861;SDS011;6499;66.348;14.134;2023-03-14T09:54:43;4.17;;;1.33;;
12861;SDS011;6499;66.348;14.134;2023-03-14T09:57:11;1.80;;;1.00;;
12861;SDS011;6499;66.348;14.134;2023-03-14T09:59:38;2.30;;;1.37;;
12861;SDS011;6499;66.348;14.134;2023-03-14T10:02:11;1.73;;;1.00;;
12861;SDS011;6499;66.348;14.134;2023-03-14T10:04:39;2.47;;;1.60;;
12861;SDS011;6499;66.348;14.134;2023-03-14T10:07:10;3.50;;;1.60;;
12861;SDS011;6499;66.348;14.134;2023-03-14T10:09:57;3.23;;;1.90;;
12861;SDS011;6499;66.348;14.134;2023-03-14T10:12:30;2.87;;;1.73;;
12861;SDS011;6499;66.348;14.134;2023-03-14T10:14:57;2.87;;;1.70;;
12861;SDS011;6499;66.348;14.134;2023-03-14T10:17:28;2.97;;;1.87;;
12861;SDS011;6499;66.348;14.134;2023-03-14T10:19:55;7.43;;;2.80;;
12861;SDS011;6499;66.348;14.134;2023-03-14T10:22:23;6.03;;;2.90;;
12861;SDS011;6499;66.348;14.134;2023-03-14T10:24:51;4.43;;;2.03;;
12861;SDS011;6499;66.348;14.134;2023-03-14T10:27:20;3.13;;;1.57;;
12861;SDS011;6499;66.348;14.134;2023-03-14T10:29:51;4.70;;;2.13;;
12861;SDS011;6499;66.348;14.134;2023-03-14T10:32:19;4.33;;;2.33;;
12861;SDS011;6499;66.348;14.134;2023-03-14T10:34:46;4.67;;;2.00;;
12861;SDS011;6499;66.348;14.134;2023-03-14T10:37:29;3.13;;;2.13;;
12861;SDS011;6499;66.348;14.134;2023-03-14T10:39:58;7.30;;;2.57;;
12861;SDS011;6499;66.348;14.134;2023-03-14T10:42:32;4.23;;;2.13;;
12861;SDS011;6499;66.348;14.134;2023-03-14T10:45:00;2.77;;;1.70;;
12861;SDS011;6499;66.348;14.134;2023-03-14T10:47:27;3.67;;;1.80;;
12861;SDS011;6499;66.348;14.134;2023-03-14T10:49:54;5.03;;;2.50;;
12861;SDS011;6499;66.348;14.134;2023-03-14T10:52:21;5.47;;;2.50;;
12861;SDS011;6499;66.348;14.134;2023-03-14T10:54:48;5.40;;;2.37;;
12861;SDS011;6499;66.348;14.134;2023-03-14T10:57:16;4.57;;;2.40;;
12861;SDS011;6499;66.348;14.134;2023-03-14T10:59:46;4.90;;;2.47;;
12861;SDS011;6499;66.348;14.134;2023-03-14T11:02:18;6.03;;;2.50;;
12861;SDS011;6499;66.348;14.134;2023-03-14T11:04:52;5.00;;;2.67;;
12861;SDS011;6499;66.348;14.134;2023-03-14T11:07:21;5.33;;;2.70;;
12861;SDS011;6499;66.348;14.134;2023-03-14T11:09:50;8.37;;;2.80;;
12861;SDS011;6499;66.348;14.134;2023-03-14T11:12:32;6.50;;;3.00;;
12861;SDS011;6499;66.348;14.134;2023-03-14T11:15:04;8.17;;;3.00;;
12861;SDS011;6499;66.348;14.134;2023-03-14T11:17:34;5.13;;;2.80;;
12861;SDS011;6499;66.348;14.134;2023-03-14T11:20:04;9.63;;;3.27;;
12861;SDS011;6499;66.348;14.134;2023-03-14T11:22:36;6.77;;;2.77;;
12861;SDS011;6499;66.348;14.134;2023-03-14T11:25:11;7.00;;;3.10;;
12861;SDS011;6499;66.348;14.134;2023-03-14T11:27:41;6.07;;;3.00;;
12861;SDS011;6499;66.348;14.134;2023-03-14T11:30:15;5.10;;;2.70;;
12861;SDS011;6499;66.348;14.134;2023-03-14T11:32:44;5.80;;;3.00;;
12861;SDS011;6499;66.348;14.134;2023-03-14T11:35:15;9.97;;;2.97;;
12861;SDS011;6499;66.348;14.134;2023-03-14T11:37:43;6.37;;;2.87;;
12861;SDS011;6499;66.348;14.134;2023-03-14T11:40:13;5.40;;;2.77;;
12861;SDS011;6499;66.348;14.134;2023-03-14T11:42:39;4.70;;;3.07;;
12861;SDS011;6499;66.348;14.134;2023-03-14T11:45:11;5.33;;;2.93;;
12861;SDS011;6499;66.348;14.134;2023-03-14T11:47:42;5.83;;;2.80;;
12861;SDS011;6499;66.348;14.134;2023-03-14T11:50:12;5.27;;;3.00;;
12861;SDS011;6499;66.348;14.134;2023-03-14T11:52:43;6.50;;;2.87;;
12861;SDS011;6499;66.348;14.134;2023-03-14T11:55:13;4.27;;;2.30;;
12861;SDS011;6499;66.348;14.134;2023-03-14T11:57:43;5.53;;;2.67;;
12861;SDS011;6499;66.348;14.134;2023-03-14T12:00:13;6.97;;;3.27;;
12861;SDS011;6499;66.348;14.134;2023-03-14T12:02:45;4.10;;;2.27;;
12861;SDS011;6499;66.348;14.134;2023-03-14T12:05:24;5.00;;;2.63;;
12861;SDS011;6499;66.348;14.134;2023-03-14T12:07:59;4.80;;;2.23;;
12861;SDS011;6499;66.348;14.134;2023-03-14T12:10:30;4.23;;;2.07;;
12861;SDS011;6499;66.348;14.134;2023-03-14T12:13:02;4.23;;;2.13;;
12861;SDS011;6499;66.348;14.134;2023-03-14T12:15:28;5.63;;;2.50;;
12861;SDS011;6499;66.348;14.134;2023-03-14T12:17:56;3.27;;;1.67;;
12861;SDS011;6499;66.348;14.134;2023-03-14T12:20:23;2.33;;;1.37;;
12861;SDS011;6499;66.348;14.134;2023-03-14T12:22:50;3.13;;;1.03;;
12861;SDS011;6499;66.348;14.134;2023-03-14T12:25:18;1.57;;;0.90;;
12861;SDS011;6499;66.348;14.134;2023-03-14T12:27:50;2.33;;;1.00;;
12861;SDS011;6499;66.348;14.134;2023-03-14T12:30:29;2.80;;;1.40;;
12861;SDS011;6499;66.348;14.134;2023-03-14T12:35:59;3.87;;;1.30;;
12861;SDS011;6499;66.348;14.134;2023-03-14T12:38:29;3.20;;;1.17;;
12861;SDS011;6499;66.348;14.134;2023-03-14T12:40:58;1.10;;;1.00;;
12861;SDS011;6499;66.348;14.134;2023-03-14T12:43:28;1.23;;;0.77;;
12861;SDS011;6499;66.348;14.134;2023-03-14T12:46:07;1.03;;;0.70;;
12861;SDS011;6499;66.348;14.134;2023-03-14T12:48:34;1.37;;;0.70;;
12861;SDS011;6499;66.348;14.134;2023-03-14T12:51:03;1.20;;;0.83;;
12861;SDS011;6499;66.348;14.134;2023-03-14T12:53:42;1.07;;;0.63;;
12861;SDS011;6499;66.348;14.134;2023-03-14T12:56:16;1.37;;;0.80;;
12861;SDS011;6499;66.348;14.134;2023-03-14T12:58:47;1.10;;;0.70;;
12861;SDS011;6499;66.348;14.134;2023-03-14T13:01:17;1.77;;;0.60;;
12861;SDS011;6499;66.348;14.134;2023-03-14T13:03:45;3.33;;;0.87;;
12861;SDS011;6499;66.348;14.134;2023-03-14T13:06:14;0.67;;;0.50;;
12861;SDS011;6499;66.348;14.134;2023-03-14T13:09:12;1.27;;;0.53;;
12861;SDS011;6499;66.348;14.134;2023-03-14T13:12:00;1.03;;;0.50;;
12861;SDS011;6499;66.348;14.134;2023-03-14T13:14:27;2.13;;;0.60;;
12861;SDS011;6499;66.348;14.134;2023-03-14T13:16:54;1.80;;;0.60;;
12861;SDS011;6499;66.348;14.134;2023-03-14T13:19:22;0.97;;;0.70;;
12861;SDS011;6499;66.348;14.134;2023-03-14T13:21:50;1.03;;;0.60;;
12861;SDS011;6499;66.348;14.134;2023-03-14T13:24:20;0.80;;;0.60;;
12861;SDS011;6499;66.348;14.134;2023-03-14T13:26:47;0.73;;;0.60;;
12861;SDS011;6499;66.348;14.134;2023-03-14T13:29:15;1.33;;;0.70;;
12861;SDS011;6499;66.348;14.134;2023-03-14T13:31:43;0.83;;;0.70;;
12861;SDS011;6499;66.348;14.134;2023-03-14T13:34:09;1.33;;;0.80;;
12861;SDS011;6499;66.348;14.134;2023-03-14T13:36:36;1.20;;;0.80;;
12861;SDS011;6499;66.348;14.134;2023-03-14T13:39:04;0.97;;;0.70;;
12861;SDS011;6499;66.348;14.134;2023-03-14T13:41:32;1.43;;;0.80;;
12861;SDS011;6499;66.348;14.134;2023-03-14T13:44:01;5.97;;;0.80;;
12861;SDS011;6499;66.348;14.134;2023-03-14T13:46:28;0.60;;;0.60;;
12861;SDS011;6499;66.348;14.134;2023-03-14T13:48:56;1.80;;;0.70;;
12861;SDS011;6499;66.348;14.134;2023-03-14T13:51:23;1.30;;;0.70;;
12861;SDS011;6499;66.348;14.134;2023-03-14T13:53:53;0.93;;;0.57;;
12861;SDS011;6499;66.348;14.134;2023-03-14T13:56:21;0.60;;;0.50;;
12861;SDS011;6499;66.348;14.134;2023-03-14T13:58:48;1.40;;;0.50;;
12861;SDS011;6499;66.348;14.134;2023-03-14T14:01:15;1.23;;;0.70;;
12861;SDS011;6499;66.348;14.134;2023-03-14T14:03:43;0.90;;;0.50;;
12861;SDS011;6499;66.348;14.134;2023-03-14T14:06:16;0.67;;;0.60;;
12861;SDS011;6499;66.348;14.134;2023-03-14T14:08:43;1.43;;;0.50;;
12861;SDS011;6499;66.348;14.134;2023-03-14T14:11:12;0.63;;;0.53;;
12861;SDS011;6499;66.348;14.134;2023-03-14T14:13:44;0.70;;;0.60;;
12861;SDS011;6499;66.348;14.134;2023-03-14T14:16:11;0.80;;;0.50;;
12861;SDS011;6499;66.348;14.134;2023-03-14T14:18:38;0.67;;;0.47;;
12861;SDS011;6499;66.348;14.134;2023-03-14T14:21:05;1.90;;;0.70;;
12861;SDS011;6499;66.348;14.134;2023-03-14T14:23:31;1.63;;;0.80;;
12861;SDS011;6499;66.348;14.134;2023-03-14T14:25:58;0.73;;;0.60;;
12861;SDS011;6499;66.348;14.134;2023-03-14T14:28:27;0.80;;;0.70;;
12861;SDS011;6499;66.348;14.134;2023-03-14T14:31:05;1.30;;;0.73;;
12861;SDS011;6499;66.348;14.134;2023-03-14T14:33:39;0.70;;;0.50;;
12861;SDS011;6499;66.348;14.134;2023-03-14T14:36:12;0.90;;;0.70;;
12861;SDS011;6499;66.348;14.134;2023-03-14T14:38:38;0.70;;;0.53;;
12861;SDS011;6499;66.348;14.134;2023-03-14T14:41:05;1.67;;;0.70;;
12861;SDS011;6499;66.348;14.134;2023-03-14T14:43:36;1.77;;;0.80;;
12861;SDS011;6499;66.348;14.134;2023-03-14T14:46:07;0.70;;;0.50;;
12861;SDS011;6499;66.348;14.134;2023-03-14T14:48:35;2.33;;;0.50;;
12861;SDS011;6499;66.348;14.134;2023-03-14T14:51:04;0.67;;;0.57;;
12861;SDS011;6499;66.348;14.134;2023-03-14T14:53:35;1.50;;;0.83;;
12861;SDS011;6499;66.348;14.134;2023-03-14T14:56:03;0.83;;;0.67;;